Time;durP1;ratioP1;P1;durP2;ratioP2;P2;SDS_P1;SDS_P2;PMS_P1;PMS_P2;Temp;Humidity;BMP_temperature;BMP_pressure;BME280_temperature;BME280_humidity;BME280_pressure;Samples;Min_cycle;Max_cycle;Signal;HPM_P1;HPM_P2
2022/04/09 00:01:50;;;;;;;9.95;3.05;;;;;;;7.73;79.58;96800.30;2238738;79;21008;-61
2022/04/09 00:04:51;;;;;;;11.15;3.10;;;;;;;7.70;79.82;96804.02;2237866;79;21076;-61
2022/04/09 00:07:53;;;;;;;12.78;3.25;;;;;;;7.70;79.89;96787.51;2237154;79;21486;-61
2022/04/09 00:10:54;;;;;;;10.85;2.87;;;;;;;7.54;80.67;96786.63;2236982;79;21008;-60
2022/04/09 00:13:56;;;;;;;10.30;3.42;;;;;;;7.53;80.10;96804.53;2231683;79;21565;-61
2022/04/09 00:16:57;;;;;;;9.33;3.10;;;;;;;7.57;79.77;96797.66;2239842;79;21053;-61
2022/04/09 00:19:59;;;;;;;10.77;2.83;;;;;;;7.74;79.70;96781.94;2237381;78;20961;-60
2022/04/09 00:23:00;;;;;;;12.00;3.00;;;;;;;7.78;78.89;96770.75;2239566;79;20953;-61
2022/04/09 00:26:02;;;;;;;15.03;3.47;;;;;;;7.66;78.79;96768.68;2237935;79;21060;-59
2022/04/09 00:29:03;;;;;;;9.40;2.80;;;;;;;7.68;79.16;96760.23;2224207;79;21051;-61
2022/04/09 00:32:05;;;;;;;8.38;2.50;;;;;;;7.77;78.95;96752.13;2230789;79;20977;-60
2022/04/09 00:35:06;;;;;;;12.33;2.60;;;;;;;7.76;79.01;96751.31;2247840;79;21007;-60
2022/04/09 00:38:08;;;;;;;9.33;2.98;;;;;;;7.72;78.70;96743.38;2243317;79;20988;-60
2022/04/09 00:41:10;;;;;;;9.58;2.98;;;;;;;7.57;78.90;96735.04;2282140;77;21482;-61
2022/04/09 00:44:11;;;;;;;15.08;4.15;;;;;;;7.45;79.53;96738.64;2279776;77;21015;-61
2022/04/09 00:47:13;;;;;;;12.53;3.62;;;;;;;7.39;80.50;96738.66;2282398;77;21436;-60
2022/04/09 00:50:14;;;;;;;13.28;3.15;;;;;;;7.33;81.58;96726.13;2283776;77;21012;-60
2022/04/09 00:53:16;;;;;;;14.30;3.50;;;;;;;7.32;80.88;96745.81;2287797;78;21008;-60
2022/04/09 00:56:18;;;;;;;13.10;3.70;;;;;;;7.38;80.76;96753.95;2276103;77;20989;-61
2022/04/09 00:59:19;;;;;;;12.47;3.20;;;;;;;7.52;80.02;96748.11;2244236;78;21535;-61
2022/04/09 01:02:21;;;;;;;12.60;3.40;;;;;;;7.56;80.26;96738.59;2240080;79;20973;-61
2022/04/09 01:05:22;;;;;;;13.30;3.75;;;;;;;7.66;80.71;96734.76;2239391;78;20965;-61
2022/04/09 01:08:24;;;;;;;15.28;4.30;;;;;;;7.78;80.08;96719.38;2285126;77;21048;-61
2022/04/09 01:11:25;;;;;;;49.15;17.20;;;;;;;7.71;79.87;96719.53;2282891;77;21008;-61
2022/04/09 01:14:27;;;;;;;10.37;3.10;;;;;;;7.71;80.06;96714.80;2281117;78;21692;-60
2022/04/09 01:17:29;;;;;;;9.10;3.05;;;;;;;7.67;80.42;96716.85;2285971;77;20992;-61
2022/04/09 01:20:31;;;;;;;10.28;3.25;;;;;;;7.74;80.36;96719.77;2287516;77;21472;-61
2022/04/09 01:23:32;;;;;;;16.05;3.35;;;;;;;7.64;80.78;96715.78;2282786;77;21084;-60
2022/04/09 01:26:34;;;;;;;13.83;3.37;;;;;;;7.57;80.41;96721.15;2285799;77;21592;-61
2022/04/09 01:29:36;;;;;;;11.35;3.40;;;;;;;7.55;80.86;96730.41;2284760;77;20993;-60
2022/04/09 01:32:37;;;;;;;8.25;2.83;;;;;;;7.57;80.82;96727.67;2263657;77;21463;-60
2022/04/09 01:35:39;;;;;;;11.75;3.02;;;;;;;7.54;80.77;96723.56;2285107;77;21052;-60
2022/04/09 01:38:40;;;;;;;12.85;3.27;;;;;;;7.35;81.36;96725.52;2283750;77;21515;-59
2022/04/09 01:41:42;;;;;;;20.68;5.10;;;;;;;7.04;83.64;96724.09;2284224;77;21068;-61
2022/04/09 01:44:43;;;;;;;16.12;4.67;;;;;;;7.23;83.11;96726.05;2284522;77;21024;-61
2022/04/09 01:47:44;;;;;;;13.30;3.40;;;;;;;7.25;83.09;96707.17;2283707;77;21000;-61
2022/04/09 01:50:46;;;;;;;13.48;3.58;;;;;;;7.31;83.14;96727.20;2283353;77;21092;-60
2022/04/09 01:53:48;;;;;;;19.85;4.65;;;;;;;7.45;83.16;96729.52;2284351;77;21068;-60
2022/04/09 01:56:49;;;;;;;20.60;4.83;;;;;;;7.42;83.02;96726.67;2282662;77;20977;-61
2022/04/09 01:59:50;;;;;;;17.95;4.35;;;;;;;7.43;82.54;96717.08;2284349;77;21491;-60
2022/04/09 02:02:52;;;;;;;19.10;5.20;;;;;;;7.49;82.97;96717.06;2286884;77;20988;-60
2022/04/09 02:05:53;;;;;;;17.82;4.65;;;;;;;7.52;82.22;96718.11;2267123;77;21474;-61
2022/04/09 02:08:55;;;;;;;13.13;3.00;;;;;;;7.54;83.34;96719.64;2274601;77;20942;-61
2022/04/09 02:11:57;;;;;;;14.83;3.45;;;;;;;7.79;83.32;96724.95;2285141;77;21538;-60
2022/04/09 02:14:58;;;;;;;11.97;3.20;;;;;;;7.98;81.72;96731.25;2280149;77;20993;-60
2022/04/09 02:18:00;;;;;;;9.18;2.92;;;;;;;8.11;81.40;96724.03;2276367;77;21510;-61
2022/04/09 02:21:02;;;;;;;11.03;3.33;;;;;;;8.23;80.66;96714.35;2284673;77;21532;-61
2022/04/09 02:24:04;;;;;;;10.43;2.90;;;;;;;8.23;80.34;96701.75;2283104;77;21028;-60
2022/04/09 02:27:06;;;;;;;8.25;2.72;;;;;;;8.28;79.58;96691.75;2285654;77;20957;-60
2022/04/09 02:30:08;;;;;;;11.60;2.62;;;;;;;8.00;79.97;96688.86;2286036;77;21020;-61
2022/04/09 02:33:09;;;;;;;11.45;2.87;;;;;;;7.83;80.29;96688.16;2284193;77;20985;-60
2022/04/09 02:36:12;;;;;;;10.93;2.95;;;;;;;7.60;81.10;96676.54;2288528;77;21630;-61
2022/04/09 02:39:14;;;;;;;14.07;3.58;;;;;;;7.45;81.99;96657.78;2280696;77;21000;-60
2022/04/09 02:42:15;;;;;;;15.00;3.90;;;;;;;7.13;82.39;96650.02;2286059;77;20996;-61
2022/04/09 02:45:17;;;;;;;14.07;3.58;;;;;;;7.11;83.03;96626.65;2283110;77;20981;-61
2022/04/09 02:48:19;;;;;;;7.85;2.50;;;;;;;7.03;85.06;96582.16;2279179;77;20992;-60
2022/04/09 02:51:20;;;;;;;17.07;4.10;;;;;;;6.94;88.02;96582.44;2284277;77;21068;-60
2022/04/09 02:54:22;;;;;;;15.70;3.47;;;;;;;6.93;86.20;96610.75;2281436;77;21004;-61
2022/04/09 02:57:23;;;;;;;13.90;3.55;;;;;;;6.85;85.80;96610.08;2283801;77;21028;-60
2022/04/09 03:00:25;;;;;;;9.03;2.90;;;;;;;6.82;86.06;96614.70;2284530;77;20993;-61
2022/04/09 03:03:26;;;;;;;8.60;2.70;;;;;;;6.97;86.03;96628.25;2289676;77;20948;-60
2022/04/09 03:06:28;;;;;;;9.65;2.98;;;;;;;7.13;84.45;96607.81;2286261;77;21498;-59
2022/04/09 03:09:29;;;;;;;8.38;2.70;;;;;;;7.13;84.86;96599.99;2281361;77;20976;-61
2022/04/09 03:12:31;;;;;;;7.08;2.58;;;;;;;7.13;84.40;96616.94;2284096;77;21516;-60
2022/04/09 03:15:32;;;;;;;8.68;2.80;;;;;;;7.16;84.26;96639.33;2244723;78;20991;-61
2022/04/09 03:18:34;;;;;;;10.48;2.83;;;;;;;7.21;84.48;96644.98;2235637;79;21072;-61
2022/04/09 03:21:35;;;;;;;10.28;2.70;;;;;;;7.23;83.91;96640.48;2241547;79;20965;-59
2022/04/09 03:24:37;;;;;;;8.80;2.40;;;;;;;7.29;83.89;96634.27;2242426;79;21610;-61
2022/04/09 03:27:38;;;;;;;12.15;3.50;;;;;;;7.35;83.72;96642.06;2234697;79;21040;-61
2022/04/09 03:30:40;;;;;;;20.62;6.22;;;;;;;7.38;83.38;96642.29;2228378;79;21008;-60
2022/04/09 03:33:41;;;;;;;53.35;21.73;;;;;;;7.59;84.39;96647.52;2237146;79;21094;-61
2022/04/09 03:36:43;;;;;;;44.70;17.80;;;;;;;7.68;83.34;96648.03;2241090;79;20969;-61
2022/04/09 03:39:45;;;;;;;44.98;16.42;;;;;;;7.70;82.33;96658.34;2241903;79;20989;-60
2022/04/09 03:42:46;;;;;;;29.50;10.50;;;;;;;7.70;82.46;96659.19;2242929;79;21002;-60
2022/04/09 03:45:47;;;;;;;9.53;2.92;;;;;;;7.62;81.93;96658.99;2239246;79;21498;-60
2022/04/09 03:48:49;;;;;;;10.58;2.80;;;;;;;7.73;83.14;96656.31;2244289;79;20985;-61
2022/04/09 03:51:50;;;;;;;8.03;2.70;;;;;;;7.77;82.06;96656.87;2245246;79;21483;-60
2022/04/09 03:54:52;;;;;;;6.80;2.10;;;;;;;7.74;81.79;96651.91;2239491;79;21559;-61
2022/04/09 03:57:54;;;;;;;6.47;2.33;;;;;;;7.56;82.28;96646.47;2240732;79;21360;-60
2022/04/09 04:00:55;;;;;;;9.05;2.30;;;;;;;7.39;83.26;96646.56;2230861;79;21042;-60
2022/04/09 04:03:57;;;;;;;7.95;2.42;;;;;;;7.29;84.13;96664.25;2241333;79;20965;-60
2022/04/09 04:06:59;;;;;;;;;;;;;;;7.25;84.80;96669.36;2227130;78;21028;-61
2022/04/09 04:10:00;;;;;;;8.75;2.55;;;;;;;7.07;85.02;96678.23;2232562;79;20098;-61
2022/04/09 04:13:02;;;;;;;11.63;2.95;;;;;;;6.96;85.55;96687.88;2243228;79;20965;-60
2022/04/09 04:16:04;;;;;;;9.10;3.12;;;;;;;6.86;86.67;96682.56;2234769;79;20962;-61
2022/04/09 04:19:06;;;;;;;10.63;3.15;;;;;;;6.77;88.12;96688.03;2236774;79;21063;-61
2022/04/09 04:22:08;;;;;;;12.53;3.15;;;;;;;6.75;88.18;96696.43;2244428;79;20993;-60
2022/04/09 04:25:09;;;;;;;10.65;3.08;;;;;;;6.69;88.69;96709.95;2238269;79;21519;-61
2022/04/09 04:28:11;;;;;;;10.50;3.00;;;;;;;6.63;90.00;96717.77;2224393;79;20992;-60
2022/04/09 04:31:12;;;;;;;11.40;3.10;;;;;;;6.68;90.02;96724.77;2227978;79;21087;-60
2022/04/09 04:34:14;;;;;;;9.23;2.83;;;;;;;6.55;90.79;96731.41;2238715;79;20993;-60
2022/04/09 04:37:15;;;;;;;10.93;3.20;;;;;;;6.42;92.36;96737.19;2239121;79;20977;-60
2022/04/09 04:40:17;;;;;;;9.80;3.25;;;;;;;6.40;92.57;96726.90;2244869;79;21001;-60
2022/04/09 04:43:18;;;;;;;11.78;3.08;;;;;;;6.41;92.41;96733.77;2242826;79;21032;-60
2022/04/09 04:46:19;;;;;;;13.28;3.25;;;;;;;6.42;92.93;96737.19;2230718;79;21510;-60
2022/04/09 04:49:21;;;;;;;10.23;2.80;;;;;;;6.32;94.52;96739.70;2236847;78;21030;-60
2022/04/09 04:52:22;;;;;;;11.00;2.90;;;;;;;6.37;97.31;96749.76;2274341;78;21527;-60
2022/04/09 04:55:24;;;;;;;8.30;2.62;;;;;;;6.34;98.19;96750.00;2245377;79;21047;-60
2022/04/09 04:58:25;;;;;;;8.17;2.87;;;;;;;6.36;97.78;96745.48;2242736;79;21504;-60
2022/04/09 05:01:27;;;;;;;11.30;2.98;;;;;;;6.28;96.74;96737.43;2246997;79;21042;-60
2022/04/09 05:04:28;;;;;;;8.70;2.90;;;;;;;6.35;97.74;96738.16;2241337;79;20989;-61
2022/04/09 05:07:30;;;;;;;9.23;3.10;;;;;;;6.33;98.35;96737.92;2244802;79;20977;-61
2022/04/09 05:10:32;;;;;;;10.65;3.10;;;;;;;6.52;96.59;96728.20;2245421;79;21519;-60
2022/04/09 05:13:33;;;;;;;11.73;3.47;;;;;;;6.53;96.72;96720.27;2242534;78;20945;-60
2022/04/09 05:16:34;;;;;;;9.13;3.25;;;;;;;6.63;96.32;96733.89;2248022;79;21162;-61
2022/04/09 05:19:36;;;;;;;11.10;3.20;;;;;;;6.59;96.26;96735.44;2241139;79;21020;-60
2022/04/09 05:22:41;;;;;;;13.23;3.50;;;;;;;6.59;95.90;96734.13;2235070;79;21001;-61
2022/04/09 05:25:41;;;;;;;8.33;3.05;;;;;;;6.67;95.75;96746.55;2213794;79;21009;-60
2022/04/09 05:28:43;;;;;;;7.20;2.90;;;;;;;6.70;97.42;96753.30;2227360;79;21004;-60
2022/04/09 05:31:46;;;;;;;10.85;3.40;;;;;;;6.54;100.00;96762.30;2245964;78;21059;-61
2022/04/09 05:34:47;;;;;;;9.60;3.30;;;;;;;6.61;99.00;96754.00;2244290;79;21512;-60
2022/04/09 05:37:50;;;;;;;12.35;3.70;;;;;;;6.49;100.00;96767.02;2237306;79;20980;-60
2022/04/09 05:40:52;;;;;;;10.98;3.50;;;;;;;6.53;99.09;96771.54;2238366;79;20997;-60
2022/04/09 05:43:53;;;;;;;10.35;3.33;;;;;;;6.36;100.00;96789.76;2240023;79;20992;-61
2022/04/09 05:46:54;;;;;;;12.85;3.83;;;;;;;6.20;100.00;96816.13;2239729;79;21503;-60
2022/04/09 05:49:56;;;;;;;9.25;3.22;;;;;;;6.09;100.00;96806.50;2233473;79;20990;-60
2022/04/09 05:52:58;;;;;;;10.93;2.85;;;;;;;5.96;100.00;96818.30;2243795;79;21504;-61
2022/04/09 05:55:59;;;;;;;9.08;2.72;;;;;;;5.88;100.00;96850.08;2239336;79;21104;-60
2022/04/09 05:59:01;;;;;;;7.55;2.65;;;;;;;5.81;100.00;96875.37;2240798;79;21514;-60
2022/04/09 06:02:02;;;;;;;8.10;2.80;;;;;;;5.69;100.00;96889.61;2237914;79;20996;-61
2022/04/09 06:05:04;;;;;;;9.08;2.60;;;;;;;5.55;100.00;96887.17;2242410;78;21497;-60
2022/04/09 06:08:06;;;;;;;10.32;2.70;;;;;;;5.52;100.00;96918.12;2246686;79;21032;-60
2022/04/09 06:11:08;;;;;;;10.82;2.95;;;;;;;5.36;100.00;96945.68;2240110;79;21047;-61
2022/04/09 06:14:10;;;;;;;9.55;2.92;;;;;;;5.42;100.00;96948.32;2237286;79;21005;-61
2022/04/09 06:17:11;;;;;;;6.95;2.70;;;;;;;5.32;100.00;96946.83;2242433;79;20993;-60
2022/04/09 06:20:13;;;;;;;9.90;3.25;;;;;;;5.24;100.00;96950.90;2284800;77;20949;-60
2022/04/09 06:23:14;;;;;;;9.98;3.35;;;;;;;5.09;100.00;96977.01;2285801;77;21523;-60
2022/04/09 06:26:15;;;;;;;16.17;4.10;;;;;;;4.82;100.00;96991.39;2282716;77;21016;-60
2022/04/09 06:29:17;;;;;;;10.25;3.62;;;;;;;4.83;100.00;96973.11;2286738;77;20989;-61
2022/04/09 06:32:18;;;;;;;12.58;3.92;;;;;;;4.57;100.00;96977.89;2282858;77;21037;-61
2022/04/09 06:35:20;;;;;;;14.00;3.95;;;;;;;4.64;100.00;96986.50;2284910;77;21118;-61
2022/04/09 06:38:22;;;;;;;16.40;4.00;;;;;;;4.47;100.00;96990.67;2280274;77;21004;-61
2022/04/09 06:41:23;;;;;;;11.57;3.95;;;;;;;4.40;100.00;97004.52;2280316;77;20950;-61
2022/04/09 06:44:25;;;;;;;11.73;3.60;;;;;;;4.42;100.00;97018.21;2287640;77;20985;-61
2022/04/09 06:47:27;;;;;;;9.93;3.52;;;;;;;4.33;100.00;97040.41;2285484;77;21036;-61
2022/04/09 06:50:29;;;;;;;12.83;4.00;;;;;;;4.24;100.00;97025.88;2284725;77;21633;-60
2022/04/09 06:53:30;;;;;;;12.23;3.60;;;;;;;4.28;100.00;97029.95;2286664;77;20989;-60
2022/04/09 06:56:32;;;;;;;16.32;4.65;;;;;;;4.28;100.00;97049.42;2270940;77;21048;-60
2022/04/09 06:59:34;;;;;;;14.75;4.33;;;;;;;4.31;100.00;97040.13;2283616;77;21053;-60
2022/04/09 07:02:35;;;;;;;15.00;4.80;;;;;;;4.30;100.00;97041.08;2284712;77;21019;-61
2022/04/09 07:05:37;;;;;;;14.18;4.58;;;;;;;4.41;100.00;97049.47;2280850;77;20953;-60
2022/04/09 07:08:39;;;;;;;17.70;4.77;;;;;;;4.39;100.00;97090.28;2285444;77;20992;-61
2022/04/09 07:11:41;;;;;;;16.00;4.87;;;;;;;4.53;100.00;97074.65;2280176;77;21735;-60
2022/04/09 07:14:42;;;;;;;16.93;5.17;;;;;;;4.46;100.00;97078.09;2285501;77;21559;-60
2022/04/09 07:17:44;;;;;;;17.00;5.08;;;;;;;4.37;100.00;97126.72;2281144;77;20985;-60
2022/04/09 07:20:45;;;;;;;15.68;5.05;;;;;;;4.25;100.00;97162.08;2243443;78;21483;-61
2022/04/09 07:23:47;;;;;;;16.25;4.80;;;;;;;4.29;100.00;97149.72;2242920;78;21033;-60
2022/04/09 07:26:48;;;;;;;15.78;4.87;;;;;;;4.44;100.00;97153.11;2227696;79;21056;-61
2022/04/09 07:29:50;;;;;;;14.45;4.75;;;;;;;4.40;100.00;97145.17;2243509;79;21040;-60
2022/04/09 07:32:51;;;;;;;15.43;4.70;;;;;;;4.46;100.00;97149.49;2243492;79;21000;-60
2022/04/09 07:35:53;;;;;;;15.95;4.70;;;;;;;4.65;100.00;97166.52;2240210;79;20965;-61
2022/04/09 07:38:55;;;;;;;13.87;4.30;;;;;;;4.74;100.00;97171.58;2237594;78;21059;-61
2022/04/09 07:41:57;;;;;;;;;;;;;;;4.78;100.00;97189.95;2237092;79;21035;-59
2022/04/09 07:44:58;;;;;;;13.38;4.50;;;;;;;4.84;100.00;97202.09;2233544;79;20094;-61
2022/04/09 07:48:00;;;;;;;13.50;3.95;;;;;;;4.91;100.00;97201.69;2242074;79;20946;-60
2022/04/09 07:51:01;;;;;;;14.78;4.65;;;;;;;4.99;100.00;97209.36;2233048;79;21021;-60
2022/04/09 07:54:03;;;;;;;13.83;4.37;;;;;;;5.16;100.00;97225.66;2234595;79;21044;-59
2022/04/09 07:57:05;;;;;;;14.55;4.80;;;;;;;5.16;100.00;97236.05;2243985;79;21067;-60
2022/04/09 08:00:06;;;;;;;15.45;4.20;;;;;;;5.30;100.00;97233.84;2239211;79;20986;-60
2022/04/09 08:03:08;;;;;;;12.25;4.00;;;;;;;5.38;100.00;97251.91;2239597;79;21001;-60
2022/04/09 08:06:10;;;;;;;13.45;4.30;;;;;;;5.28;100.00;97269.52;2247545;79;21040;-60
2022/04/09 08:09:11;;;;;;;12.53;4.10;;;;;;;5.23;100.00;97275.45;2243517;79;20985;-60
2022/04/09 08:12:13;;;;;;;15.03;4.47;;;;;;;5.35;100.00;97276.80;2237671;79;21519;-61
2022/04/09 08:15:16;;;;;;;13.40;3.92;;;;;;;5.43;100.00;97293.68;2226715;79;21029;-60
2022/04/09 08:18:18;;;;;;;14.40;4.30;;;;;;;5.45;100.00;97299.63;2232094;79;20993;-59
2022/04/09 08:21:19;;;;;;;14.05;4.60;;;;;;;5.53;100.00;97301.25;2244402;79;21480;-61
2022/04/09 08:24:21;;;;;;;16.57;4.53;;;;;;;5.49;99.27;97308.44;2239011;79;21001;-60
2022/04/09 08:27:22;;;;;;;13.48;3.70;;;;;;;5.54;99.30;97314.62;2244223;79;21535;-59
2022/04/09 08:30:24;;;;;;;12.78;4.17;;;;;;;5.59;95.19;97349.44;2244384;79;21032;-59
2022/04/09 08:33:25;;;;;;;14.73;4.03;;;;;;;5.44;98.44;97357.29;2235709;79;21521;-59
2022/04/09 08:36:27;;;;;;;14.80;4.10;;;;;;;5.37;97.67;97376.37;2242800;79;20980;-60
2022/04/09 08:39:28;;;;;;;14.40;3.95;;;;;;;5.33;97.84;97375.33;2241575;79;21000;-60
2022/04/09 08:42:30;;;;;;;12.80;4.10;;;;;;;5.41;98.47;97363.98;2243692;79;20993;-60
2022/04/09 08:45:31;;;;;;;13.68;4.15;;;;;;;5.34;98.41;97354.91;2229412;79;21060;-60
2022/04/09 08:48:33;;;;;;;13.15;4.03;;;;;;;5.62;99.25;97372.20;2238198;79;21031;-60
2022/04/09 08:51:35;;;;;;;13.20;4.20;;;;;;;5.83;97.37;97367.39;2231647;79;21044;-60
2022/04/09 08:54:36;;;;;;;13.00;3.92;;;;;;;6.07;94.41;97369.34;2235833;79;21519;-60
2022/04/09 08:57:38;;;;;;;17.20;4.63;;;;;;;6.25;94.08;97377.72;2240753;79;20992;-60
2022/04/09 09:00:40;;;;;;;17.27;4.50;;;;;;;6.39;92.25;97382.84;2230142;79;21652;-61
2022/04/09 09:03:42;;;;;;;16.20;4.45;;;;;;;6.72;88.37;97382.80;2242753;79;21078;-61
2022/04/09 09:06:45;;;;;;;19.82;4.90;;;;;;;6.86;89.51;97389.66;2238941;79;21506;-60
2022/04/09 09:09:46;;;;;;;13.48;4.40;;;;;;;6.88;86.88;97401.27;2240841;79;20992;-61
2022/04/09 09:12:48;;;;;;;16.70;5.10;;;;;;;6.88;88.01;97404.73;2236025;79;20993;-60
2022/04/09 09:18:53;;;;;;;18.12;4.62;;;;;;;6.84;87.24;97413.70;2208924;79;21053;-61
2022/04/09 09:21:54;;;;;;;17.50;4.83;;;;;;;6.74;89.81;97415.27;2245846;79;21019;-60
2022/04/09 09:24:56;;;;;;;17.05;4.72;;;;;;;6.77;88.79;97421.58;2244093;79;20958;-60
2022/04/09 09:27:57;;;;;;;17.02;5.10;;;;;;;6.51;89.52;97427.24;2229415;79;20988;-60
2022/04/09 09:30:59;;;;;;;18.17;5.75;;;;;;;6.20;91.61;97430.08;2241701;79;20992;-60
2022/04/09 09:34:00;;;;;;;22.02;6.40;;;;;;;6.17;92.81;97432.88;2231421;79;21056;-60
2022/04/09 09:37:02;;;;;;;24.75;7.00;;;;;;;6.33;91.98;97431.89;2234093;79;21510;-60
2022/04/09 09:40:03;;;;;;;21.02;6.30;;;;;;;6.53;95.88;97435.78;2232300;79;21080;-60
2022/04/09 09:43:05;;;;;;;21.48;6.20;;;;;;;6.71;95.11;97435.84;2241302;79;21102;-60
2022/04/09 09:46:06;;;;;;;20.62;6.47;;;;;;;6.88;91.00;97429.50;2226362;79;20957;-60
2022/04/09 09:49:08;;;;;;;19.62;6.47;;;;;;;7.02;93.12;97436.35;2240090;78;20995;-60
2022/04/09 09:52:10;;;;;;;20.95;7.05;;;;;;;7.02;95.82;97455.91;2242866;79;21024;-60
2022/04/09 09:55:13;;;;;;;22.37;7.53;;;;;;;7.05;96.18;97454.87;2235208;79;20992;-60
2022/04/09 09:58:16;;;;;;;20.72;7.65;;;;;;;7.04;90.72;97470.99;2240131;79;21012;-60
2022/04/09 10:01:18;;;;;;;22.62;8.10;;;;;;;6.89;92.15;97491.09;2240420;79;21064;-60
2022/04/09 10:04:19;;;;;;;25.13;8.33;;;;;;;7.09;95.11;97494.96;2240397;79;21036;-60
2022/04/09 10:07:21;;;;;;;23.62;7.80;;;;;;;7.17;91.18;97502.28;2241140;79;21033;-60
2022/04/09 10:10:26;;;;;;;22.45;7.33;;;;;;;7.23;93.51;97503.64;2236265;79;20993;-60
2022/04/09 10:13:26;;;;;;;19.98;6.62;;;;;;;7.40;85.15;97524.66;2202246;79;21016;-60
2022/04/09 10:16:28;;;;;;;20.35;7.03;;;;;;;7.60;82.29;97525.41;2237890;79;21000;-60
2022/04/09 10:19:30;;;;;;;20.85;7.47;;;;;;;7.48;91.99;97528.86;2231645;79;21042;-60
2022/04/09 10:22:32;;;;;;;23.40;7.03;;;;;;;7.56;85.69;97534.39;2243844;79;21507;-60
2022/04/09 10:25:34;;;;;;;22.42;6.62;;;;;;;7.60;84.04;97537.60;2238919;79;20988;-60
2022/04/09 10:28:38;;;;;;;24.00;6.65;;;;;;;7.86;88.79;97564.97;2242786;79;21498;-60
2022/04/09 10:31:39;;;;;;;20.60;6.55;;;;;;;7.91;83.07;97529.77;2228004;79;21009;-60
2022/04/09 10:34:41;;;;;;;19.37;5.95;;;;;;;7.99;81.32;97542.30;2245263;79;20961;-60
2022/04/09 10:37:42;;;;;;;21.12;6.17;;;;;;;8.12;78.20;97552.71;2236347;79;20984;-60
2022/04/09 10:40:43;;;;;;;20.25;5.55;;;;;;;8.56;80.47;97543.93;2230985;79;21015;-60
2022/04/09 10:43:45;;;;;;;19.65;5.55;;;;;;;8.58;75.91;97557.73;2236091;79;20985;-60
2022/04/09 10:46:46;;;;;;;19.62;5.45;;;;;;;8.38;73.55;97573.52;2237772;79;21503;-60
2022/04/09 10:49:48;;;;;;;21.87;5.50;;;;;;;8.39;74.84;97575.17;2237492;79;20961;-60
2022/04/09 10:52:49;;;;;;;19.73;4.83;;;;;;;8.36;75.25;97574.94;2239142;79;21495;-60
2022/04/09 10:55:51;;;;;;;18.80;4.72;;;;;;;8.42;70.71;97621.98;2239925;79;20996;-60
2022/04/09 10:58:52;;;;;;;14.85;4.17;;;;;;;8.45;69.77;97600.43;2243410;79;21070;-61
2022/04/09 11:01:54;;;;;;;17.07;4.05;;;;;;;8.72;68.93;97585.01;2242456;79;20988;-61
2022/04/09 11:04:55;;;;;;;14.58;4.10;;;;;;;8.72;69.71;97594.16;2242789;78;21005;-60
2022/04/09 11:07:57;;;;;;;16.50;4.00;;;;;;;8.69;66.98;97601.38;2242871;79;21011;-60
2022/04/09 11:10:58;;;;;;;19.23;4.70;;;;;;;8.58;68.34;97602.99;2241474;79;21025;-60
2022/04/09 11:14:00;;;;;;;16.70;4.62;;;;;;;8.50;68.36;97602.70;2239672;79;21375;-60
2022/04/09 11:17:01;;;;;;;16.50;4.00;;;;;;;8.52;71.40;97615.20;2242855;79;20997;-60
2022/04/09 11:20:03;;;;;;;21.20;4.17;;;;;;;8.57;67.72;97618.79;2239559;78;21478;-61
2022/04/09 11:23:05;;;;;;;18.57;3.92;;;;;;;8.52;66.08;97613.90;2234549;79;21083;-60
2022/04/09 11:26:06;;;;;;;22.35;4.70;;;;;;;8.66;65.80;97611.58;2244814;79;21508;-60
2022/04/09 11:29:08;;;;;;;20.40;4.35;;;;;;;9.00;65.56;97612.55;2233502;79;21031;-60
2022/04/09 11:32:09;;;;;;;15.32;4.28;;;;;;;9.27;63.06;97616.70;2243343;79;20996;-60
2022/04/09 11:35:11;;;;;;;23.38;4.47;;;;;;;9.26;63.53;97618.12;2239230;79;21052;-60
2022/04/09 11:38:13;;;;;;;18.67;4.37;;;;;;;9.25;62.99;97626.91;2245476;79;20992;-60
2022/04/09 11:41:14;;;;;;;16.90;3.80;;;;;;;9.06;63.58;97621.73;2238772;79;21463;-60
2022/04/09 11:44:15;;;;;;;15.63;4.17;;;;;;;9.21;62.37;97630.70;2240937;79;20962;-60
2022/04/09 11:47:17;;;;;;;14.00;3.77;;;;;;;9.20;62.82;97605.02;2242149;78;20985;-60
2022/04/09 11:50:18;;;;;;;15.10;3.80;;;;;;;9.05;61.52;97630.55;2242752;79;20997;-60
2022/04/09 11:53:20;;;;;;;16.50;4.00;;;;;;;8.92;61.01;97641.08;2229506;79;20977;-60
2022/04/09 11:56:21;;;;;;;14.18;3.52;;;;;;;8.82;60.92;97660.52;2238806;79;21071;-60
2022/04/09 11:59:23;;;;;;;17.50;4.05;;;;;;;8.73;60.67;97678.64;2238543;79;20969;-60
2022/04/09 12:02:24;;;;;;;15.18;3.87;;;;;;;8.66;61.99;97658.17;2242632;79;21502;-60
2022/04/09 12:05:26;;;;;;;17.15;4.17;;;;;;;8.70;62.15;97680.17;2243144;79;20992;-60
2022/04/09 12:08:29;;;;;;;17.87;4.10;;;;;;;8.55;61.74;97665.09;2238993;79;21499;-60
2022/04/09 12:11:31;;;;;;;17.77;4.10;;;;;;;8.47;63.46;97658.63;2239656;79;21127;-60
2022/04/09 12:14:33;;;;;;;15.38;3.60;;;;;;;8.56;62.50;97665.02;2244155;79;21051;-60
2022/04/09 12:17:34;;;;;;;17.37;3.83;;;;;;;8.51;63.87;97652.73;2240547;79;21067;-60
2022/04/09 12:20:36;;;;;;;15.17;4.00;;;;;;;8.64;62.88;97656.61;2232063;79;21021;-60
2022/04/09 12:23:38;;;;;;;16.23;3.75;;;;;;;8.58;62.13;97660.50;2241802;79;21032;-60
2022/04/09 12:26:39;;;;;;;16.10;3.70;;;;;;;8.75;60.20;97654.06;2241807;79;20981;-60
2022/04/09 12:29:41;;;;;;;12.03;3.27;;;;;;;8.79;60.43;97667.28;2241095;79;20981;-60
2022/04/09 12:32:42;;;;;;;13.80;3.12;;;;;;;8.66;58.57;97675.62;2241814;79;20993;-60
2022/04/09 12:35:44;;;;;;;11.78;2.75;;;;;;;8.63;60.03;97700.22;2239219;79;22299;-60
2022/04/09 12:38:46;;;;;;;11.83;2.85;;;;;;;8.67;60.79;97711.28;2243064;79;21032;-60
2022/04/09 12:41:48;;;;;;;12.35;2.98;;;;;;;8.59;56.18;97734.05;2244530;79;21026;-61
2022/04/09 12:44:49;;;;;;;13.05;3.20;;;;;;;8.59;56.61;97737.97;2242376;79;20996;-60
2022/04/09 12:47:51;;;;;;;14.87;3.22;;;;;;;8.63;59.97;97726.81;2243888;79;20984;-60
2022/04/09 12:50:53;;;;;;;13.28;3.33;;;;;;;8.40;59.36;97751.44;2242272;79;21589;-60
2022/04/09 12:53:55;;;;;;;11.85;2.85;;;;;;;8.13;60.06;97743.27;2240500;79;21000;-60
2022/04/09 12:56:57;;;;;;;;;;;;;;;7.82;57.38;97765.86;2243103;79;20965;-61
2022/04/09 12:59:58;;;;;;;9.28;2.20;;;;;;;7.05;52.33;97771.66;2241203;79;20389;-60
2022/04/09 13:03:00;;;;;;;13.20;2.85;;;;;;;6.83;52.17;97757.85;2238104;79;20981;-60
2022/04/09 13:06:01;;;;;;;20.97;4.80;;;;;;;6.77;54.90;97734.31;2233666;78;21001;-60
2022/04/09 13:09:03;;;;;;;21.95;5.10;;;;;;;7.03;57.42;97727.44;2243566;79;21688;-60
2022/04/09 13:12:04;;;;;;;18.30;4.30;;;;;;;7.29;58.10;97739.27;2239387;79;21012;-61
2022/04/09 13:15:05;;;;;;;18.95;4.53;;;;;;;7.50;60.16;97738.79;2242137;79;21058;-60
2022/04/09 13:18:07;;;;;;;14.30;3.52;;;;;;;7.67;59.39;97746.36;2231204;79;21042;-60
2022/04/09 13:21:09;;;;;;;13.68;3.22;;;;;;;7.84;58.99;97751.74;2240471;79;20965;-60
2022/04/09 13:24:11;;;;;;;13.18;3.50;;;;;;;8.01;59.79;97749.31;2240021;79;21111;-60
2022/04/09 13:27:12;;;;;;;12.10;2.92;;;;;;;8.12;59.99;97745.98;2238846;79;21147;-60
2022/04/09 13:30:13;;;;;;;11.95;3.27;;;;;;;8.41;59.42;97747.89;2237275;79;21020;-60
2022/04/09 13:33:15;;;;;;;14.43;3.33;;;;;;;8.36;61.81;97740.00;2238918;79;21009;-60
2022/04/09 13:36:17;;;;;;;17.82;3.65;;;;;;;8.50;61.36;97726.84;2245761;79;20989;-60
2022/04/09 13:39:18;;;;;;;16.20;3.50;;;;;;;8.81;60.61;97746.43;2240813;79;21610;-61
2022/04/09 13:42:20;;;;;;;16.75;3.62;;;;;;;8.97;58.26;97743.55;2243714;79;21074;-60
2022/04/09 13:45:22;;;;;;;20.15;4.10;;;;;;;9.22;60.23;97738.34;2243171;79;21467;-60
2022/04/09 13:48:23;;;;;;;16.02;4.08;;;;;;;9.34;60.53;97734.35;2247222;79;20965;-60
2022/04/09 13:51:25;;;;;;;14.98;3.55;;;;;;;9.40;59.99;97729.63;2238015;78;21531;-60
2022/04/09 13:54:26;;;;;;;16.07;3.62;;;;;;;9.72;58.96;97736.38;2240284;79;20993;-60
2022/04/09 13:57:28;;;;;;;11.20;3.10;;;;;;;9.83;57.78;97744.76;2239004;79;21036;-61
2022/04/09 14:00:30;;;;;;;11.13;3.37;;;;;;;9.69;53.40;97758.39;2236001;79;21000;-60
2022/04/09 14:03:31;;;;;;;13.98;3.35;;;;;;;9.61;53.76;97760.77;2237910;79;20945;-60
2022/04/09 14:06:33;;;;;;;10.20;3.00;;;;;;;9.61;53.67;97767.77;2240945;79;21045;-60
2022/04/09 14:09:34;;;;;;;10.98;2.98;;;;;;;9.69;51.29;97759.70;2241176;79;21024;-61
2022/04/09 14:12:35;;;;;;;10.75;2.75;;;;;;;9.84;49.25;97764.73;2241479;79;21558;-61
2022/04/09 14:15:37;;;;;;;14.00;2.85;;;;;;;9.48;46.88;97779.61;2238143;79;20998;-61
2022/04/09 14:18:38;;;;;;;12.43;2.87;;;;;;;9.24;46.48;97774.37;2248697;79;21123;-60